sensor_id;sensor_type;location;lat;lon;timestamp;P1;durP1;ratioP1;P2;durP2;ratioP2
3601;SDS011;1815;50.950;6.920;2023-04-29T00:02:11;8.43;;;7.27;;
3601;SDS011;1815;50.950;6.920;2023-04-29T00:04:37;9.30;;;7.80;;
3601;SDS011;1815;50.950;6.920;2023-04-29T00:07:02;8.23;;;6.70;;
3601;SDS011;1815;50.950;6.920;2023-04-29T00:09:28;11.33;;;9.23;;
3601;SDS011;1815;50.950;6.920;2023-04-29T00:11:54;10.77;;;8.70;;
3601;SDS011;1815;50.950;6.920;2023-04-29T00:14:20;11.90;;;8.70;;
3601;SDS011;1815;50.950;6.920;2023-04-29T00:16:45;11.47;;;8.97;;
3601;SDS011;1815;50.950;6.920;2023-04-29T00:19:11;10.60;;;8.13;;
3601;SDS011;1815;50.950;6.920;2023-04-29T00:21:37;12.17;;;8.80;;
3601;SDS011;1815;50.950;6.920;2023-04-29T00:24:03;10.67;;;9.10;;
3601;SDS011;1815;50.950;6.920;2023-04-29T00:26:29;13.20;;;8.20;;
3601;SDS011;1815;50.950;6.920;2023-04-29T00:28:54;9.47;;;8.47;;
3601;SDS011;1815;50.950;6.920;2023-04-29T00:31:23;10.60;;;8.13;;
3601;SDS011;1815;50.950;6.920;2023-04-29T00:33:49;11.43;;;9.10;;
3601;SDS011;1815;50.950;6.920;2023-04-29T00:36:15;8.60;;;7.70;;
3601;SDS011;1815;50.950;6.920;2023-04-29T00:38:43;11.07;;;9.03;;
3601;SDS011;1815;50.950;6.920;2023-04-29T00:41:09;11.07;;;9.80;;
3601;SDS011;1815;50.950;6.920;2023-04-29T00:43:35;11.07;;;8.63;;
3601;SDS011;1815;50.950;6.920;2023-04-29T00:46:00;11.10;;;8.07;;
3601;SDS011;1815;50.950;6.920;2023-04-29T00:48:26;11.27;;;8.20;;
3601;SDS011;1815;50.950;6.920;2023-04-29T00:50:52;9.83;;;8.00;;
3601;SDS011;1815;50.950;6.920;2023-04-29T00:53:18;10.37;;;8.40;;
3601;SDS011;1815;50.950;6.920;2023-04-29T00:55:45;8.23;;;6.73;;
3601;SDS011;1815;50.950;6.920;2023-04-29T00:58:12;8.77;;;7.63;;
3601;SDS011;1815;50.950;6.920;2023-04-29T01:00:41;8.87;;;7.13;;
3601;SDS011;1815;50.950;6.920;2023-04-29T01:03:10;9.30;;;7.70;;
3601;SDS011;1815;50.950;6.920;2023-04-29T01:05:46;9.77;;;7.28;;
3601;SDS011;1815;50.950;6.920;2023-04-29T01:11:10;11.07;;;8.57;;
3601;SDS011;1815;50.950;6.920;2023-04-29T01:13:41;9.83;;;8.20;;
3601;SDS011;1815;50.950;6.920;2023-04-29T01:16:24;12.37;;;9.33;;
3601;SDS011;1815;50.950;6.920;2023-04-29T01:19:04;12.17;;;8.27;;
3601;SDS011;1815;50.950;6.920;2023-04-29T01:21:46;12.33;;;9.17;;
3601;SDS011;1815;50.950;6.920;2023-04-29T01:24:22;14.13;;;11.63;;
3601;SDS011;1815;50.950;6.920;2023-04-29T01:26:58;13.13;;;9.97;;
3601;SDS011;1815;50.950;6.920;2023-04-29T01:30:10;11.70;;;9.60;;
3601;SDS011;1815;50.950;6.920;2023-04-29T01:33:06;14.73;;;10.85;;
3601;SDS011;1815;50.950;6.920;2023-04-29T01:42:04;11.77;;;10.10;;
3601;SDS011;1815;50.950;6.920;2023-04-29T01:44:39;15.87;;;12.40;;
3601;SDS011;1815;50.950;6.920;2023-04-29T01:47:06;18.90;;;12.90;;
3601;SDS011;1815;50.950;6.920;2023-04-29T01:49:40;15.17;;;12.83;;
3601;SDS011;1815;50.950;6.920;2023-04-29T01:52:06;15.00;;;11.87;;
3601;SDS011;1815;50.950;6.920;2023-04-29T01:54:34;20.70;;;16.10;;
3601;SDS011;1815;50.950;6.920;2023-04-29T01:57:04;18.90;;;14.93;;
3601;SDS011;1815;50.950;6.920;2023-04-29T01:59:47;23.70;;;18.60;;
3601;SDS011;1815;50.950;6.920;2023-04-29T02:02:32;25.47;;;20.27;;
3601;SDS011;1815;50.950;6.920;2023-04-29T02:05:08;24.37;;;19.87;;
3601;SDS011;1815;50.950;6.920;2023-04-29T02:07:38;23.60;;;20.40;;
3601;SDS011;1815;50.950;6.920;2023-04-29T02:10:04;22.73;;;18.30;;
3601;SDS011;1815;50.950;6.920;2023-04-29T02:12:37;23.27;;;17.73;;
3601;SDS011;1815;50.950;6.920;2023-04-29T02:15:05;21.30;;;18.37;;
3601;SDS011;1815;50.950;6.920;2023-04-29T02:17:32;21.85;;;16.77;;
3601;SDS011;1815;50.950;6.920;2023-04-29T02:19:58;24.50;;;19.60;;
3601;SDS011;1815;50.950;6.920;2023-04-29T02:22:24;29.33;;;21.90;;
3601;SDS011;1815;50.950;6.920;2023-04-29T02:24:53;26.03;;;20.50;;
3601;SDS011;1815;50.950;6.920;2023-04-29T02:27:21;24.03;;;20.50;;
3601;SDS011;1815;50.950;6.920;2023-04-29T02:29:47;23.80;;;20.27;;
3601;SDS011;1815;50.950;6.920;2023-04-29T02:32:13;24.13;;;20.40;;
3601;SDS011;1815;50.950;6.920;2023-04-29T02:34:40;23.57;;;19.60;;
3601;SDS011;1815;50.950;6.920;2023-04-29T02:37:05;27.13;;;22.40;;
3601;SDS011;1815;50.950;6.920;2023-04-29T02:39:31;26.47;;;21.77;;
3601;SDS011;1815;50.950;6.920;2023-04-29T02:41:57;28.17;;;21.97;;
3601;SDS011;1815;50.950;6.920;2023-04-29T02:44:25;27.97;;;23.27;;
3601;SDS011;1815;50.950;6.920;2023-04-29T02:46:51;28.50;;;21.53;;
3601;SDS011;1815;50.950;6.920;2023-04-29T02:49:17;29.77;;;21.77;;
3601;SDS011;1815;50.950;6.920;2023-04-29T02:51:43;29.27;;;20.50;;
3601;SDS011;1815;50.950;6.920;2023-04-29T02:54:08;30.77;;;21.97;;
3601;SDS011;1815;50.950;6.920;2023-04-29T02:56:36;28.40;;;22.37;;
3601;SDS011;1815;50.950;6.920;2023-04-29T02:59:01;32.87;;;24.90;;
3601;SDS011;1815;50.950;6.920;2023-04-29T03:01:27;30.20;;;22.23;;
3601;SDS011;1815;50.950;6.920;2023-04-29T03:03:53;29.67;;;22.73;;
3601;SDS011;1815;50.950;6.920;2023-04-29T03:06:22;31.87;;;23.40;;
3601;SDS011;1815;50.950;6.920;2023-04-29T03:08:49;31.48;;;24.30;;
3601;SDS011;1815;50.950;6.920;2023-04-29T03:11:16;33.30;;;25.52;;
3601;SDS011;1815;50.950;6.920;2023-04-29T03:13:42;31.83;;;23.57;;
3601;SDS011;1815;50.950;6.920;2023-04-29T03:16:11;32.58;;;24.50;;
3601;SDS011;1815;50.950;6.920;2023-04-29T03:18:41;35.78;;;27.42;;
3601;SDS011;1815;50.950;6.920;2023-04-29T03:21:08;35.33;;;27.42;;
3601;SDS011;1815;50.950;6.920;2023-04-29T03:23:34;30.40;;;24.03;;
3601;SDS011;1815;50.950;6.920;2023-04-29T03:26:04;31.95;;;23.73;;
3601;SDS011;1815;50.950;6.920;2023-04-29T03:28:30;35.58;;;26.75;;
3601;SDS011;1815;50.950;6.920;2023-04-29T03:30:55;34.00;;;26.77;;
3601;SDS011;1815;50.950;6.920;2023-04-29T03:33:22;38.42;;;29.10;;
3601;SDS011;1815;50.950;6.920;2023-04-29T03:35:49;44.50;;;28.38;;
3601;SDS011;1815;50.950;6.920;2023-04-29T03:38:33;49.80;;;33.13;;
3601;SDS011;1815;50.950;6.920;2023-04-29T03:40:59;44.83;;;31.27;;
3601;SDS011;1815;50.950;6.920;2023-04-29T03:43:26;43.15;;;27.35;;
3601;SDS011;1815;50.950;6.920;2023-04-29T03:45:52;34.73;;;24.00;;
3601;SDS011;1815;50.950;6.920;2023-04-29T03:48:20;36.33;;;23.52;;
3601;SDS011;1815;50.950;6.920;2023-04-29T03:50:46;42.70;;;28.50;;
3601;SDS011;1815;50.950;6.920;2023-04-29T03:53:12;33.93;;;21.90;;
3601;SDS011;1815;50.950;6.920;2023-04-29T03:55:38;36.92;;;25.15;;
3601;SDS011;1815;50.950;6.920;2023-04-29T03:58:05;43.58;;;26.73;;
3601;SDS011;1815;50.950;6.920;2023-04-29T04:00:31;44.97;;;26.90;;
3601;SDS011;1815;50.950;6.920;2023-04-29T04:03:00;42.42;;;28.10;;
3601;SDS011;1815;50.950;6.920;2023-04-29T04:05:26;44.65;;;26.90;;
3601;SDS011;1815;50.950;6.920;2023-04-29T04:07:57;44.13;;;26.40;;
3601;SDS011;1815;50.950;6.920;2023-04-29T04:10:45;37.08;;;23.45;;
3601;SDS011;1815;50.950;6.920;2023-04-29T04:13:28;36.63;;;23.75;;
3601;SDS011;1815;50.950;6.920;2023-04-29T04:15:53;39.28;;;24.25;;
3601;SDS011;1815;50.950;6.920;2023-04-29T04:18:19;32.40;;;22.03;;
3601;SDS011;1815;50.950;6.920;2023-04-29T04:20:45;39.60;;;23.40;;
3601;SDS011;1815;50.950;6.920;2023-04-29T04:23:11;40.67;;;25.85;;
3601;SDS011;1815;50.950;6.920;2023-04-29T04:25:38;40.10;;;23.40;;
3601;SDS011;1815;50.950;6.920;2023-04-29T04:28:37;39.13;;;22.40;;
3601;SDS011;1815;50.950;6.920;2023-04-29T04:31:11;39.50;;;23.95;;
3601;SDS011;1815;50.950;6.920;2023-04-29T04:33:40;42.28;;;24.85;;
3601;SDS011;1815;50.950;6.920;2023-04-29T04:36:06;34.20;;;22.33;;
3601;SDS011;1815;50.950;6.920;2023-04-29T04:38:32;36.42;;;23.73;;
3601;SDS011;1815;50.950;6.920;2023-04-29T04:41:00;32.95;;;22.85;;
3601;SDS011;1815;50.950;6.920;2023-04-29T04:43:33;33.13;;;23.05;;
3601;SDS011;1815;50.950;6.920;2023-04-29T04:46:00;27.52;;;19.98;;
3601;SDS011;1815;50.950;6.920;2023-04-29T04:48:39;32.22;;;21.27;;
3601;SDS011;1815;50.950;6.920;2023-04-29T04:51:08;28.33;;;19.23;;
3601;SDS011;1815;50.950;6.920;2023-04-29T04:53:34;32.40;;;21.45;;
3601;SDS011;1815;50.950;6.920;2023-04-29T04:56:05;34.13;;;23.75;;
3601;SDS011;1815;50.950;6.920;2023-04-29T04:58:31;30.38;;;22.60;;
3601;SDS011;1815;50.950;6.920;2023-04-29T05:00:58;31.52;;;21.27;;
3601;SDS011;1815;50.950;6.920;2023-04-29T05:03:24;29.88;;;19.83;;
3601;SDS011;1815;50.950;6.920;2023-04-29T05:05:56;31.63;;;21.50;;
3601;SDS011;1815;50.950;6.920;2023-04-29T05:08:23;32.88;;;21.23;;
3601;SDS011;1815;50.950;6.920;2023-04-29T05:10:51;35.10;;;22.83;;
3601;SDS011;1815;50.950;6.920;2023-04-29T05:13:19;31.88;;;20.75;;
3601;SDS011;1815;50.950;6.920;2023-04-29T05:15:45;31.80;;;20.50;;
3601;SDS011;1815;50.950;6.920;2023-04-29T05:18:12;29.55;;;21.17;;
3601;SDS011;1815;50.950;6.920;2023-04-29T05:20:40;27.40;;;18.90;;
3601;SDS011;1815;50.950;6.920;2023-04-29T05:23:05;26.13;;;18.67;;
3601;SDS011;1815;50.950;6.920;2023-04-29T05:25:36;25.83;;;17.35;;
3601;SDS011;1815;50.950;6.920;2023-04-29T05:28:02;19.93;;;15.43;;
3601;SDS011;1815;50.950;6.920;2023-04-29T05:30:31;26.48;;;18.33;;
3601;SDS011;1815;50.950;6.920;2023-04-29T05:32:57;23.67;;;17.30;;
3601;SDS011;1815;50.950;6.920;2023-04-29T05:35:22;23.50;;;15.97;;
3601;SDS011;1815;50.950;6.920;2023-04-29T05:37:49;23.10;;;16.33;;
3601;SDS011;1815;50.950;6.920;2023-04-29T05:40:30;23.67;;;16.58;;
3601;SDS011;1815;50.950;6.920;2023-04-29T05:43:13;22.88;;;15.25;;
3601;SDS011;1815;50.950;6.920;2023-04-29T05:45:39;24.87;;;17.70;;
3601;SDS011;1815;50.950;6.920;2023-04-29T05:48:05;25.93;;;17.27;;
3601;SDS011;1815;50.950;6.920;2023-04-29T05:50:30;19.00;;;14.90;;
3601;SDS011;1815;50.950;6.920;2023-04-29T05:52:56;22.67;;;16.50;;
3601;SDS011;1815;50.950;6.920;2023-04-29T05:55:23;22.13;;;15.73;;
3601;SDS011;1815;50.950;6.920;2023-04-29T05:57:49;19.73;;;15.17;;
3601;SDS011;1815;50.950;6.920;2023-04-29T06:00:16;18.98;;;13.77;;
3601;SDS011;1815;50.950;6.920;2023-04-29T06:02:42;19.45;;;13.48;;
3601;SDS011;1815;50.950;6.920;2023-04-29T06:05:11;18.02;;;13.00;;
3601;SDS011;1815;50.950;6.920;2023-04-29T06:08:03;16.23;;;13.23;;
3601;SDS011;1815;50.950;6.920;2023-04-29T06:10:40;13.88;;;11.52;;
3601;SDS011;1815;50.950;6.920;2023-04-29T06:13:06;15.90;;;11.10;;
3601;SDS011;1815;50.950;6.920;2023-04-29T06:15:32;14.30;;;11.07;;
3601;SDS011;1815;50.950;6.920;2023-04-29T06:17:58;14.30;;;11.30;;
3601;SDS011;1815;50.950;6.920;2023-04-29T06:20:24;14.70;;;10.73;;
3601;SDS011;1815;50.950;6.920;2023-04-29T06:22:49;17.00;;;11.50;;
3601;SDS011;1815;50.950;6.920;2023-04-29T06:25:15;19.27;;;13.93;;
3601;SDS011;1815;50.950;6.920;2023-04-29T06:27:49;15.73;;;12.85;;
3601;SDS011;1815;50.950;6.920;2023-04-29T06:30:17;15.57;;;12.50;;
3601;SDS011;1815;50.950;6.920;2023-04-29T06:32:43;16.80;;;12.80;;
3601;SDS011;1815;50.950;6.920;2023-04-29T06:35:09;12.77;;;10.53;;
3601;SDS011;1815;50.950;6.920;2023-04-29T06:38:07;16.67;;;12.98;;
3601;SDS011;1815;50.950;6.920;2023-04-29T06:40:42;15.75;;;11.48;;
3601;SDS011;1815;50.950;6.920;2023-04-29T06:43:30;17.42;;;13.75;;
3601;SDS011;1815;50.950;6.920;2023-04-29T06:46:25;21.05;;;14.10;;
3601;SDS011;1815;50.950;6.920;2023-04-29T06:49:01;15.50;;;12.38;;
3601;SDS011;1815;50.950;6.920;2023-04-29T06:51:27;17.45;;;14.27;;
3601;SDS011;1815;50.950;6.920;2023-04-29T06:53:53;14.40;;;11.20;;
3601;SDS011;1815;50.950;6.920;2023-04-29T06:56:19;16.33;;;12.93;;
3601;SDS011;1815;50.950;6.920;2023-04-29T06:58:46;15.27;;;12.50;;
3601;SDS011;1815;50.950;6.920;2023-04-29T07:01:12;14.00;;;11.90;;
3601;SDS011;1815;50.950;6.920;2023-04-29T07:03:38;15.57;;;12.68;;
3601;SDS011;1815;50.950;6.920;2023-04-29T07:06:04;18.13;;;13.30;;
3601;SDS011;1815;50.950;6.920;2023-04-29T07:08:30;14.40;;;12.20;;
3601;SDS011;1815;50.950;6.920;2023-04-29T07:10:56;14.97;;;12.97;;
3601;SDS011;1815;50.950;6.920;2023-04-29T07:13:23;15.32;;;12.43;;
3601;SDS011;1815;50.950;6.920;2023-04-29T07:15:49;16.90;;;13.10;;
3601;SDS011;1815;50.950;6.920;2023-04-29T07:18:15;14.80;;;12.10;;
3601;SDS011;1815;50.950;6.920;2023-04-29T07:20:41;17.20;;;13.43;;
3601;SDS011;1815;50.950;6.920;2023-04-29T07:23:08;18.95;;;12.70;;
3601;SDS011;1815;50.950;6.920;2023-04-29T07:25:34;18.90;;;13.50;;
3601;SDS011;1815;50.950;6.920;2023-04-29T07:28:02;17.47;;;11.37;;
3601;SDS011;1815;50.950;6.920;2023-04-29T07:30:28;13.83;;;12.23;;
3601;SDS011;1815;50.950;6.920;2023-04-29T07:32:54;14.43;;;11.43;;
3601;SDS011;1815;50.950;6.920;2023-04-29T07:35:20;16.80;;;13.03;;
3601;SDS011;1815;50.950;6.920;2023-04-29T07:37:46;16.00;;;12.60;;
3601;SDS011;1815;50.950;6.920;2023-04-29T07:40:12;15.30;;;13.70;;
3601;SDS011;1815;50.950;6.920;2023-04-29T07:42:38;14.67;;;11.80;;
3601;SDS011;1815;50.950;6.920;2023-04-29T07:45:05;17.20;;;13.07;;
3601;SDS011;1815;50.950;6.920;2023-04-29T07:47:32;14.07;;;11.30;;
3601;SDS011;1815;50.950;6.920;2023-04-29T07:49:58;16.33;;;13.30;;
3601;SDS011;1815;50.950;6.920;2023-04-29T07:52:24;12.97;;;11.60;;
3601;SDS011;1815;50.950;6.920;2023-04-29T07:54:50;14.57;;;12.17;;
3601;SDS011;1815;50.950;6.920;2023-04-29T07:57:16;12.20;;;9.87;;
3601;SDS011;1815;50.950;6.920;2023-04-29T07:59:42;11.67;;;10.17;;
3601;SDS011;1815;50.950;6.920;2023-04-29T08:02:08;11.10;;;9.97;;
3601;SDS011;1815;50.950;6.920;2023-04-29T08:04:33;12.20;;;9.50;;
3601;SDS011;1815;50.950;6.920;2023-04-29T08:07:07;16.10;;;10.97;;
3601;SDS011;1815;50.950;6.920;2023-04-29T08:09:34;14.43;;;11.20;;
3601;SDS011;1815;50.950;6.920;2023-04-29T08:12:01;13.77;;;12.27;;
3601;SDS011;1815;50.950;6.920;2023-04-29T08:14:27;14.87;;;11.37;;
3601;SDS011;1815;50.950;6.920;2023-04-29T08:16:53;12.67;;;10.20;;
3601;SDS011;1815;50.950;6.920;2023-04-29T08:19:19;15.93;;;11.00;;
3601;SDS011;1815;50.950;6.920;2023-04-29T08:21:46;10.87;;;8.80;;
3601;SDS011;1815;50.950;6.920;2023-04-29T08:24:12;12.10;;;10.47;;
3601;SDS011;1815;50.950;6.920;2023-04-29T08:26:41;14.13;;;10.50;;
3601;SDS011;1815;50.950;6.920;2023-04-29T08:29:07;10.60;;;9.30;;
3601;SDS011;1815;50.950;6.920;2023-04-29T08:31:33;11.00;;;9.53;;
3601;SDS011;1815;50.950;6.920;2023-04-29T08:33:59;9.50;;;7.97;;
3601;SDS011;1815;50.950;6.920;2023-04-29T08:36:25;10.47;;;9.33;;
3601;SDS011;1815;50.950;6.920;2023-04-29T08:38:54;10.13;;;9.03;;
3601;SDS011;1815;50.950;6.920;2023-04-29T08:41:20;13.20;;;10.00;;
3601;SDS011;1815;50.950;6.920;2023-04-29T08:43:46;11.83;;;9.70;;
3601;SDS011;1815;50.950;6.920;2023-04-29T08:46:12;11.13;;;9.23;;
3601;SDS011;1815;50.950;6.920;2023-04-29T08:48:38;10.93;;;9.83;;
3601;SDS011;1815;50.950;6.920;2023-04-29T08:51:05;11.00;;;9.43;;
3601;SDS011;1815;50.950;6.920;2023-04-29T08:53:31;10.40;;;9.07;;
3601;SDS011;1815;50.950;6.920;2023-04-29T08:55:57;9.13;;;7.87;;
3601;SDS011;1815;50.950;6.920;2023-04-29T08:58:27;10.43;;;8.83;;
3601;SDS011;1815;50.950;6.920;2023-04-29T09:00:56;9.87;;;6.77;;
3601;SDS011;1815;50.950;6.920;2023-04-29T09:03:26;10.30;;;9.20;;
3601;SDS011;1815;50.950;6.920;2023-04-29T09:05:58;9.60;;;7.87;;
3601;SDS011;1815;50.950;6.920;2023-04-29T09:08:26;9.70;;;8.53;;
3601;SDS011;1815;50.950;6.920;2023-04-29T09:10:52;10.87;;;8.37;;
3601;SDS011;1815;50.950;6.920;2023-04-29T09:13:23;14.60;;;8.87;;
3601;SDS011;1815;50.950;6.920;2023-04-29T09:15:49;10.60;;;8.63;;
3601;SDS011;1815;50.950;6.920;2023-04-29T09:21:14;9.07;;;7.80;;
3601;SDS011;1815;50.950;6.920;2023-04-29T09:23:49;10.17;;;8.37;;
3601;SDS011;1815;50.950;6.920;2023-04-29T09:26:16;12.23;;;9.27;;
3601;SDS011;1815;50.950;6.920;2023-04-29T09:28:42;12.13;;;10.30;;
3601;SDS011;1815;50.950;6.920;2023-04-29T09:31:12;11.13;;;9.17;;
3601;SDS011;1815;50.950;6.920;2023-04-29T09:33:56;11.47;;;9.03;;
3601;SDS011;1815;50.950;6.920;2023-04-29T09:41:41;10.50;;;9.30;;
3601;SDS011;1815;50.950;6.920;2023-04-29T09:44:16;8.20;;;6.80;;
3601;SDS011;1815;50.950;6.920;2023-04-29T09:46:43;10.17;;;8.70;;
3601;SDS011;1815;50.950;6.920;2023-04-29T09:49:22;9.40;;;8.37;;
3601;SDS011;1815;50.950;6.920;2023-04-29T09:51:53;10.07;;;8.03;;
3601;SDS011;1815;50.950;6.920;2023-04-29T09:54:20;11.13;;;9.93;;
3601;SDS011;1815;50.950;6.920;2023-04-29T09:56:48;8.87;;;7.87;;
3601;SDS011;1815;50.950;6.920;2023-04-29T09:59:16;10.47;;;9.40;;
3601;SDS011;1815;50.950;6.920;2023-04-29T10:01:42;13.00;;;9.33;;
3601;SDS011;1815;50.950;6.920;2023-04-29T10:04:08;10.67;;;8.93;;
3601;SDS011;1815;50.950;6.920;2023-04-29T10:06:36;10.23;;;8.13;;
3601;SDS011;1815;50.950;6.920;2023-04-29T10:09:06;14.53;;;11.60;;
3601;SDS011;1815;50.950;6.920;2023-04-29T10:11:32;19.53;;;13.40;;
3601;SDS011;1815;50.950;6.920;2023-04-29T10:14:00;12.80;;;11.10;;
3601;SDS011;1815;50.950;6.920;2023-04-29T10:16:30;14.57;;;12.37;;
3601;SDS011;1815;50.950;6.920;2023-04-29T10:19:02;15.07;;;12.53;;
3601;SDS011;1815;50.950;6.920;2023-04-29T10:21:31;14.80;;;11.70;;
3601;SDS011;1815;50.950;6.920;2023-04-29T10:23:58;12.33;;;10.93;;
3601;SDS011;1815;50.950;6.920;2023-04-29T10:26:26;11.43;;;10.23;;
3601;SDS011;1815;50.950;6.920;2023-04-29T10:28:56;13.23;;;11.23;;
3601;SDS011;1815;50.950;6.920;2023-04-29T10:31:27;11.50;;;10.30;;
3601;SDS011;1815;50.950;6.920;2023-04-29T10:33:59;12.50;;;10.87;;
3601;SDS011;1815;50.950;6.920;2023-04-29T10:36:27;13.33;;;9.70;;
3601;SDS011;1815;50.950;6.920;2023-04-29T10:38:59;14.03;;;11.23;;
3601;SDS011;1815;50.950;6.920;2023-04-29T10:41:33;12.40;;;9.03;;
3601;SDS011;1815;50.950;6.920;2023-04-29T10:44:09;10.50;;;9.00;;
3601;SDS011;1815;50.950;6.920;2023-04-29T10:46:35;10.53;;;9.50;;
3601;SDS011;1815;50.950;6.920;2023-04-29T10:49:02;11.48;;;9.52;;
3601;SDS011;1815;50.950;6.920;2023-04-29T10:51:31;11.20;;;10.00;;
3601;SDS011;1815;50.950;6.920;2023-04-29T10:54:16;12.67;;;10.60;;
3601;SDS011;1815;50.950;6.920;2023-04-29T10:56:51;15.90;;;13.73;;
3601;SDS011;1815;50.950;6.920;2023-04-29T11:02:08;25.30;;;21.07;;
3601;SDS011;1815;50.950;6.920;2023-04-29T11:04:34;24.17;;;20.00;;
3601;SDS011;1815;50.950;6.920;2023-04-29T11:07:34;25.30;;;20.97;;
3601;SDS011;1815;50.950;6.920;2023-04-29T11:10:00;22.70;;;20.30;;
3601;SDS011;1815;50.950;6.920;2023-04-29T11:12:27;24.70;;;20.33;;
3601;SDS011;1815;50.950;6.920;2023-04-29T11:14:53;23.33;;;18.77;;
3601;SDS011;1815;50.950;6.920;2023-04-29T11:17:27;24.50;;;18.77;;
3601;SDS011;1815;50.950;6.920;2023-04-29T11:20:00;25.13;;;21.37;;
3601;SDS011;1815;50.950;6.920;2023-04-29T11:22:26;28.50;;;22.03;;
3601;SDS011;1815;50.950;6.920;2023-04-29T11:27:33;30.33;;;23.67;;
3601;SDS011;1815;50.950;6.920;2023-04-29T11:30:03;37.60;;;24.00;;
3601;SDS011;1815;50.950;6.920;2023-04-29T11:32:31;25.23;;;22.27;;
3601;SDS011;1815;50.950;6.920;2023-04-29T11:35:09;26.90;;;19.30;;
3601;SDS011;1815;50.950;6.920;2023-04-29T11:37:36;21.63;;;17.70;;
3601;SDS011;1815;50.950;6.920;2023-04-29T11:40:04;32.53;;;24.77;;
3601;SDS011;1815;50.950;6.920;2023-04-29T11:42:32;31.27;;;24.27;;
3601;SDS011;1815;50.950;6.920;2023-04-29T11:45:09;25.00;;;21.40;;
3601;SDS011;1815;50.950;6.920;2023-04-29T11:47:36;40.10;;;29.53;;
3601;SDS011;1815;50.950;6.920;2023-04-29T11:50:06;38.63;;;30.00;;
3601;SDS011;1815;50.950;6.920;2023-04-29T11:52:35;39.63;;;31.63;;
3601;SDS011;1815;50.950;6.920;2023-04-29T11:55:09;39.97;;;32.37;;
3601;SDS011;1815;50.950;6.920;2023-04-29T11:57:36;38.50;;;32.30;;
3601;SDS011;1815;50.950;6.920;2023-04-29T12:00:03;41.03;;;33.20;;
3601;SDS011;1815;50.950;6.920;2023-04-29T12:02:33;43.53;;;35.10;;
3601;SDS011;1815;50.950;6.920;2023-04-29T12:04:59;43.70;;;36.33;;
3601;SDS011;1815;50.950;6.920;2023-04-29T12:07:29;46.97;;;35.97;;
3601;SDS011;1815;50.950;6.920;2023-04-29T12:09:55;44.53;;;36.50;;
3601;SDS011;1815;50.950;6.920;2023-04-29T12:12:22;39.47;;;35.20;;
3601;SDS011;1815;50.950;6.920;2023-04-29T12:14:48;38.87;;;31.67;;
3601;SDS011;1815;50.950;6.920;2023-04-29T12:17:14;36.30;;;32.03;;
3601;SDS011;1815;50.950;6.920;2023-04-29T12:19:41;42.30;;;33.27;;
3601;SDS011;1815;50.950;6.920;2023-04-29T12:22:08;35.70;;;29.87;;
3601;SDS011;1815;50.950;6.920;2023-04-29T12:24:35;33.70;;;28.30;;
3601;SDS011;1815;50.950;6.920;2023-04-29T12:27:02;35.00;;;31.23;;
3601;SDS011;1815;50.950;6.920;2023-04-29T12:29:32;38.53;;;30.53;;
3601;SDS011;1815;50.950;6.920;2023-04-29T12:31:57;34.17;;;27.83;;
3601;SDS011;1815;50.950;6.920;2023-04-29T12:34:24;36.03;;;30.13;;
3601;SDS011;1815;50.950;6.920;2023-04-29T12:36:54;32.73;;;29.47;;
3601;SDS011;1815;50.950;6.920;2023-04-29T12:39:21;35.43;;;31.60;;
3601;SDS011;1815;50.950;6.920;2023-04-29T12:41:47;31.80;;;28.40;;
3601;SDS011;1815;50.950;6.920;2023-04-29T12:44:13;27.67;;;24.70;;
3601;SDS011;1815;50.950;6.920;2023-04-29T12:46:40;29.20;;;26.00;;
3601;SDS011;1815;50.950;6.920;2023-04-29T12:49:06;29.67;;;25.43;;
3601;SDS011;1815;50.950;6.920;2023-04-29T12:51:32;27.30;;;24.50;;
3601;SDS011;1815;50.950;6.920;2023-04-29T12:54:00;29.00;;;24.70;;
3601;SDS011;1815;50.950;6.920;2023-04-29T12:56:28;25.90;;;23.10;;
3601;SDS011;1815;50.950;6.920;2023-04-29T12:59:06;23.20;;;20.70;;
3601;SDS011;1815;50.950;6.920;2023-04-29T13:01:34;23.97;;;20.73;;
3601;SDS011;1815;50.950;6.920;2023-04-29T13:04:03;23.33;;;20.83;;
3601;SDS011;1815;50.950;6.920;2023-04-29T13:06:30;23.17;;;20.33;;
3601;SDS011;1815;50.950;6.920;2023-04-29T13:08:57;20.93;;;16.43;;
3601;SDS011;1815;50.950;6.920;2023-04-29T13:11:23;19.00;;;16.23;;
3601;SDS011;1815;50.950;6.920;2023-04-29T13:13:49;17.93;;;16.00;;
3601;SDS011;1815;50.950;6.920;2023-04-29T13:16:14;22.00;;;18.20;;
3601;SDS011;1815;50.950;6.920;2023-04-29T13:18:40;17.70;;;15.77;;
3601;SDS011;1815;50.950;6.920;2023-04-29T13:21:06;22.67;;;17.07;;
3601;SDS011;1815;50.950;6.920;2023-04-29T13:23:32;16.77;;;14.90;;
3601;SDS011;1815;50.950;6.920;2023-04-29T13:25:58;16.87;;;14.73;;
3601;SDS011;1815;50.950;6.920;2023-04-29T13:28:23;17.40;;;14.73;;
3601;SDS011;1815;50.950;6.920;2023-04-29T13:30:49;16.87;;;15.07;;
3601;SDS011;1815;50.950;6.920;2023-04-29T13:33:16;15.97;;;14.33;;
3601;SDS011;1815;50.950;6.920;2023-04-29T13:35:42;16.73;;;14.93;;
3601;SDS011;1815;50.950;6.920;2023-04-29T13:38:08;16.27;;;13.33;;
3601;SDS011;1815;50.950;6.920;2023-04-29T13:40:33;14.93;;;13.43;;
3601;SDS011;1815;50.950;6.920;2023-04-29T13:42:59;15.27;;;13.67;;
3601;SDS011;1815;50.950;6.920;2023-04-29T13:45:26;14.73;;;13.23;;
3601;SDS011;1815;50.950;6.920;2023-04-29T13:47:52;14.97;;;13.47;;
3601;SDS011;1815;50.950;6.920;2023-04-29T13:50:17;17.20;;;14.37;;
3601;SDS011;1815;50.950;6.920;2023-04-29T13:52:44;14.37;;;12.40;;
3601;SDS011;1815;50.950;6.920;2023-04-29T13:55:10;12.63;;;11.43;;
3601;SDS011;1815;50.950;6.920;2023-04-29T13:57:36;16.37;;;13.40;;
3601;SDS011;1815;50.950;6.920;2023-04-29T14:00:02;15.17;;;13.60;;
3601;SDS011;1815;50.950;6.920;2023-04-29T14:02:36;14.43;;;12.63;;
3601;SDS011;1815;50.950;6.920;2023-04-29T14:05:03;15.00;;;13.40;;
3601;SDS011;1815;50.950;6.920;2023-04-29T14:07:29;16.03;;;14.43;;
3601;SDS011;1815;50.950;6.920;2023-04-29T14:09:55;14.77;;;13.17;;
3601;SDS011;1815;50.950;6.920;2023-04-29T14:12:20;16.67;;;13.73;;
3601;SDS011;1815;50.950;6.920;2023-04-29T14:14:46;14.67;;;13.07;;
3601;SDS011;1815;50.950;6.920;2023-04-29T14:17:12;15.23;;;13.63;;
3601;SDS011;1815;50.950;6.920;2023-04-29T14:19:38;14.97;;;13.47;;
3601;SDS011;1815;50.950;6.920;2023-04-29T14:22:03;14.50;;;13.00;;
3601;SDS011;1815;50.950;6.920;2023-04-29T14:24:29;16.20;;;13.20;;
3601;SDS011;1815;50.950;6.920;2023-04-29T14:26:55;12.83;;;11.57;;
3601;SDS011;1815;50.950;6.920;2023-04-29T14:29:21;15.07;;;13.47;;
3601;SDS011;1815;50.950;6.920;2023-04-29T14:31:47;14.00;;;12.60;;
3601;SDS011;1815;50.950;6.920;2023-04-29T14:34:13;15.23;;;13.63;;
3601;SDS011;1815;50.950;6.920;2023-04-29T14:36:39;14.07;;;12.67;;
3601;SDS011;1815;50.950;6.920;2023-04-29T14:39:05;13.93;;;12.47;;
3601;SDS011;1815;50.950;6.920;2023-04-29T14:41:30;14.57;;;13.17;;
3601;SDS011;1815;50.950;6.920;2023-04-29T14:43:56;13.80;;;12.43;;
3601;SDS011;1815;50.950;6.920;2023-04-29T14:46:22;15.83;;;14.03;;
3601;SDS011;1815;50.950;6.920;2023-04-29T14:48:49;15.73;;;13.13;;
3601;SDS011;1815;50.950;6.920;2023-04-29T14:51:15;17.90;;;14.10;;
3601;SDS011;1815;50.950;6.920;2023-04-29T14:53:40;16.67;;;13.80;;
3601;SDS011;1815;50.950;6.920;2023-04-29T14:56:07;15.67;;;14.07;;
3601;SDS011;1815;50.950;6.920;2023-04-29T14:58:32;14.90;;;13.40;;
3601;SDS011;1815;50.950;6.920;2023-04-29T15:00:58;16.70;;;14.13;;
3601;SDS011;1815;50.950;6.920;2023-04-29T15:03:24;14.80;;;13.37;;
3601;SDS011;1815;50.950;6.920;2023-04-29T15:05:50;16.10;;;13.73;;
3601;SDS011;1815;50.950;6.920;2023-04-29T15:08:15;14.47;;;13.07;;
3601;SDS011;1815;50.950;6.920;2023-04-29T15:10:42;13.97;;;12.50;;
3601;SDS011;1815;50.950;6.920;2023-04-29T15:13:10;16.30;;;14.57;;
3601;SDS011;1815;50.950;6.920;2023-04-29T15:15:36;14.30;;;13.00;;
3601;SDS011;1815;50.950;6.920;2023-04-29T15:18:02;15.73;;;13.80;;
3601;SDS011;1815;50.950;6.920;2023-04-29T15:20:30;15.50;;;14.00;;
3601;SDS011;1815;50.950;6.920;2023-04-29T15:22:56;17.80;;;15.70;;